createdAt,value
2023-05-03T00:01:54.687Z,101568.09
2023-05-03T00:05:01.305Z,101559.03
2023-05-03T00:08:07.186Z,101570.78
2023-05-03T00:11:12.969Z,101556.59
2023-05-03T00:14:18.867Z,101557.28
2023-05-03T00:17:24.291Z,101559.59
2023-05-03T00:20:29.806Z,101564.84
2023-05-03T00:23:35.248Z,101563.31
2023-05-03T00:26:42.008Z,101556.13
2023-05-03T00:29:47.364Z,101557.84
2023-05-03T00:32:53.038Z,101557.16
2023-05-03T00:35:59.027Z,101555.16
2023-05-03T00:39:04.322Z,101558.91
2023-05-03T00:42:09.527Z,101557.84
2023-05-03T00:45:14.967Z,101560.06
2023-05-03T00:48:21.088Z,101558.69
2023-05-03T00:51:28.187Z,101566.94
2023-05-03T00:54:35.993Z,101555.75
2023-05-03T00:57:42.106Z,101563.69
2023-05-03T01:00:49.437Z,101564.97
2023-05-03T01:03:57.354Z,101563.22
2023-05-03T01:07:41.639Z,101561.38
2023-05-03T01:11:08.158Z,101556.44
2023-05-03T01:14:40.888Z,101554.69
2023-05-03T01:17:52.098Z,101560.28
2023-05-03T01:21:00.242Z,101560.88
2023-05-03T01:24:22.760Z,101554.81
2023-05-03T01:27:27.928Z,101562.88
2023-05-03T01:30:35.890Z,101564.50
2023-05-03T01:33:57.599Z,101564.97
2023-05-03T01:37:04.849Z,101559.72
2023-05-03T01:40:17.195Z,101560.75
2023-05-03T01:43:23.978Z,101569.25
2023-05-03T01:46:29.496Z,101566.22
2023-05-03T01:49:35.446Z,101567.53
2023-05-03T01:52:41.232Z,101576.56
2023-05-03T01:55:47.195Z,101567.75
2023-05-03T01:58:52.691Z,101576.34
2023-05-03T02:01:58.520Z,101578.94
2023-05-03T02:05:04.301Z,101577.41
2023-05-03T02:08:09.610Z,101586.94
2023-05-03T02:11:15.590Z,101586.56
2023-05-03T02:14:21.454Z,101588.56
2023-05-03T02:17:27.172Z,101590.78
2023-05-03T02:20:36.765Z,101585.06
2023-05-03T02:23:42.071Z,101593.22
2023-05-03T02:26:47.438Z,101596.03
2023-05-03T02:29:53.275Z,101596.50
2023-05-03T02:33:00.204Z,101595.09
2023-05-03T02:36:06.971Z,101604.56
2023-05-03T02:39:13.292Z,101595.00
2023-05-03T02:42:20.002Z,101599.19
2023-05-03T02:45:26.341Z,101600.47
2023-05-03T02:48:33.178Z,101602.91
2023-05-03T02:51:39.336Z,101596.94
2023-05-03T02:54:46.777Z,101598.47
2023-05-03T02:57:53.437Z,101612.66
2023-05-03T03:00:59.488Z,101612.41
2023-05-03T03:04:08.538Z,101619.91
2023-05-03T03:07:14.249Z,101630.78
2023-05-03T03:10:19.849Z,101630.53
2023-05-03T03:13:25.929Z,101636.19
2023-05-03T03:16:31.473Z,101636.56
2023-05-03T03:19:37.489Z,101638.19
2023-05-03T03:22:45.853Z,101639.03
2023-05-03T03:25:52.641Z,101638.06
2023-05-03T03:28:58.504Z,101642.59
2023-05-03T03:32:04.399Z,101649.72
2023-05-03T03:35:11.190Z,101645.19
2023-05-03T03:38:16.764Z,101644.59
2023-05-03T03:41:29.825Z,101642.38
2023-05-03T03:44:36.421Z,101644.97
2023-05-03T03:47:41.660Z,101655.31
2023-05-03T03:50:48.067Z,101643.78
2023-05-03T03:53:53.982Z,101644.59
2023-05-03T03:57:05.325Z,101649.81
2023-05-03T04:00:13.010Z,101655.97
2023-05-03T04:03:23.886Z,101658.88
2023-05-03T04:06:29.689Z,101654.94
2023-05-03T04:09:36.579Z,101658.19
2023-05-03T04:12:42.701Z,101662.03
2023-05-03T04:15:48.263Z,101656.81
2023-05-03T04:18:54.008Z,101662.91
2023-05-03T04:21:59.783Z,101666.69
2023-05-03T04:25:06.134Z,101664.25
2023-05-03T04:28:12.019Z,101667.81
2023-05-03T04:31:22.266Z,101675.41
2023-05-03T04:34:31.483Z,101674.56
2023-05-03T04:37:40.300Z,101671.53
2023-05-03T04:40:46.503Z,101682.81
2023-05-03T04:43:52.491Z,101686.13
2023-05-03T04:47:00.265Z,101684.44
2023-05-03T04:50:09.385Z,101683.34
2023-05-03T04:53:15.827Z,101685.06
2023-05-03T04:56:28.024Z,101692.66
2023-05-03T04:59:40.614Z,101703.34
2023-05-03T05:02:47.047Z,101698.59
2023-05-03T05:05:53.384Z,101698.06
2023-05-03T05:08:59.249Z,101713.75
2023-05-03T05:12:05.633Z,101706.88
2023-05-03T05:15:16.215Z,101706.22
2023-05-03T05:18:22.893Z,101710.06
2023-05-03T05:21:29.627Z,101706.47
2023-05-03T05:24:35.619Z,101718.22
2023-05-03T05:27:41.698Z,101716.25
2023-05-03T05:30:47.637Z,101716.63
2023-05-03T05:33:53.360Z,101709.06
2023-05-03T05:36:59.084Z,101707.47
2023-05-03T05:40:08.152Z,101713.47
2023-05-03T05:43:21.882Z,101709.25
2023-05-03T05:46:28.315Z,101709.06
2023-05-03T05:49:33.901Z,101711.59
2023-05-03T05:52:39.710Z,101709.06
2023-05-03T05:55:45.808Z,101714.31
2023-05-03T05:58:51.968Z,101712.41
2023-05-03T06:01:57.831Z,101717.91
2023-05-03T06:05:07.569Z,101718.06
2023-05-03T06:08:13.745Z,101713.88
2023-05-03T06:11:19.125Z,101715.97
2023-05-03T06:14:24.676Z,101716.91
2023-05-03T06:17:30.705Z,101708.66
2023-05-03T06:20:36.279Z,101710.31
2023-05-03T06:23:42.062Z,101723.25
2023-05-03T06:26:48.808Z,101720.00
2023-05-03T06:29:55.804Z,101722.44
2023-05-03T06:33:02.712Z,101720.75
2023-05-03T06:36:09.805Z,101719.94
2023-05-03T06:39:16.964Z,101722.06
2023-05-03T06:42:22.206Z,101723.22
2023-05-03T06:45:27.819Z,101732.88
2023-05-03T06:48:33.342Z,101733.13
2023-05-03T06:51:38.941Z,101725.78
2023-05-03T06:54:44.707Z,101722.03
2023-05-03T06:57:52.550Z,101734.41
2023-05-03T07:00:58.256Z,101725.41
2023-05-03T07:04:04.237Z,101719.47
2023-05-03T07:07:09.843Z,101721.88
2023-05-03T07:10:15.792Z,101723.19
2023-05-03T07:13:21.305Z,101727.34
2023-05-03T07:16:26.800Z,101728.59
2023-05-03T07:19:32.246Z,101732.50
2023-05-03T07:22:37.544Z,101729.00
2023-05-03T07:25:43.794Z,101724.28
2023-05-03T07:28:49.312Z,101729.66
2023-05-03T07:31:54.948Z,101726.00
2023-05-03T07:35:00.775Z,101729.19
2023-05-03T07:38:06.358Z,101723.94
2023-05-03T07:41:11.545Z,101722.34
2023-05-03T07:44:17.768Z,101715.72
2023-05-03T07:47:23.515Z,101726.25
2023-05-03T07:50:29.216Z,101726.41
2023-05-03T07:53:35.889Z,101727.34
2023-05-03T07:56:41.311Z,101717.38
2023-05-03T07:59:46.749Z,101717.50
2023-05-03T08:02:52.485Z,101722.53
2023-05-03T08:05:58.229Z,101722.59
2023-05-03T08:09:05.002Z,101718.56
2023-05-03T08:12:10.211Z,101719.13
2023-05-03T08:15:15.747Z,101718.41
2023-05-03T08:18:23.681Z,101719.88
2023-05-03T08:21:30.875Z,101728.06
2023-05-03T08:24:36.299Z,101725.91
2023-05-03T08:27:41.839Z,101720.84
2023-05-03T08:30:47.114Z,101726.00
2023-05-03T08:33:52.115Z,101722.41
2023-05-03T08:36:58.369Z,101737.41
2023-05-03T08:40:06.568Z,101733.47
2023-05-03T08:43:16.243Z,101732.00
2023-05-03T08:46:22.741Z,101733.47
2023-05-03T08:49:29.904Z,101729.19
2023-05-03T08:52:35.558Z,101735.25
2023-05-03T08:55:42.904Z,101733.97
2023-05-03T08:58:48.728Z,101733.84
2023-05-03T09:01:55.060Z,101735.56
2023-05-03T09:05:01.126Z,101732.97
2023-05-03T09:08:10.201Z,101738.28
2023-05-03T09:11:28.106Z,101732.41
2023-05-03T09:14:44.341Z,101726.06
2023-05-03T09:18:16.294Z,101733.53
2023-05-03T09:21:22.457Z,101734.28
2023-05-03T09:24:28.246Z,101731.22
2023-05-03T09:27:33.873Z,101735.06
2023-05-03T09:30:39.825Z,101730.41
2023-05-03T09:33:45.974Z,101732.50
2023-05-03T09:36:51.247Z,101732.06
2023-05-03T09:40:08.450Z,101731.00
2023-05-03T09:43:18.148Z,101730.41
2023-05-03T09:46:25.917Z,101721.78
2023-05-03T09:49:37.128Z,101730.44
2023-05-03T09:52:42.831Z,101723.88
2023-05-03T09:55:51.168Z,101722.41
2023-05-03T09:58:57.095Z,101722.78
2023-05-03T10:02:07.897Z,101720.50
2023-05-03T10:05:14.190Z,101713.28
2023-05-03T10:08:33.810Z,101716.19
2023-05-03T10:11:39.254Z,101713.13
2023-05-03T10:14:48.954Z,101705.00
2023-05-03T10:17:57.169Z,101715.63
2023-05-03T10:21:07.770Z,101706.22
2023-05-03T10:24:16.501Z,101709.22
2023-05-03T10:27:21.936Z,101700.44
2023-05-03T10:30:33.119Z,101699.44
2023-05-03T10:33:38.857Z,101691.25
2023-05-03T10:36:49.752Z,101685.91
2023-05-03T10:39:58.512Z,101688.66
2023-05-03T10:43:05.072Z,101691.31
2023-05-03T10:46:32.807Z,101684.84
2023-05-03T10:49:38.428Z,101685.88
2023-05-03T10:52:44.263Z,101677.25
2023-05-03T10:56:13.465Z,101680.25
2023-05-03T10:59:19.532Z,101677.28
2023-05-03T11:02:34.266Z,101684.59
2023-05-03T11:05:40.438Z,101677.56
2023-05-03T11:08:48.990Z,101677.84
2023-05-03T11:11:54.672Z,101668.06
2023-05-03T11:15:00.264Z,101682.09
2023-05-03T11:18:08.029Z,101678.06
2023-05-03T11:21:14.165Z,101670.50
2023-05-03T11:24:19.812Z,101666.75
2023-05-03T11:27:25.625Z,101674.56
2023-05-03T11:30:35.180Z,101664.25
2023-05-03T11:33:41.762Z,101666.19
2023-05-03T11:36:47.019Z,101670.50
2023-05-03T11:39:52.357Z,101668.03
2023-05-03T11:43:01.165Z,101667.50
2023-05-03T11:46:06.734Z,101664.19
2023-05-03T11:49:19.242Z,101670.16
2023-05-03T11:52:27.889Z,101668.97
2023-05-03T11:55:33.703Z,101666.63
2023-05-03T11:58:56.642Z,101664.78
2023-05-03T12:02:04.996Z,101671.16
2023-05-03T12:05:11.467Z,101652.09
2023-05-03T12:08:21.079Z,101657.47
2023-05-03T12:11:30.340Z,101654.06
2023-05-03T12:15:11.295Z,101649.41
2023-05-03T12:24:34.640Z,101658.16
2023-05-03T12:27:40.857Z,101649.06
2023-05-03T12:30:46.909Z,101646.72
2023-05-03T12:37:04.786Z,101647.84
2023-05-03T12:43:24.670Z,101651.47
2023-05-03T12:46:34.777Z,101652.84
2023-05-03T12:49:45.658Z,101646.53
2023-05-03T12:52:53.092Z,101649.88
2023-05-03T12:55:58.970Z,101643.03
2023-05-03T12:59:31.644Z,101648.09
2023-05-03T13:05:40.230Z,101645.44
2023-05-03T13:08:49.986Z,101637.25
2023-05-03T13:11:56.902Z,101636.25
2023-05-03T13:15:04.439Z,101638.03
2023-05-03T13:18:10.459Z,101626.03
2023-05-03T13:21:17.105Z,101626.56
2023-05-03T13:24:22.313Z,101628.28
2023-05-03T13:27:28.151Z,101630.41
2023-05-03T13:30:34.679Z,101623.50
2023-05-03T13:33:40.897Z,101617.13
2023-05-03T13:36:46.046Z,101620.66
2023-05-03T13:39:51.809Z,101621.81
2023-05-03T13:42:57.216Z,101621.34
2023-05-03T13:46:03.164Z,101618.56
2023-05-03T13:49:08.623Z,101622.69
2023-05-03T13:52:14.032Z,101623.63
2023-05-03T13:55:19.133Z,101612.38
2023-05-03T13:58:24.448Z,101612.06
2023-05-03T14:01:30.481Z,101610.59
2023-05-03T14:04:35.838Z,101611.16
2023-05-03T14:07:41.329Z,101606.09
2023-05-03T14:10:47.088Z,101608.28
2023-05-03T14:13:57.033Z,101610.38
2023-05-03T14:17:03.917Z,101619.63
2023-05-03T14:20:12.782Z,101609.09
2023-05-03T14:23:18.139Z,101607.19
2023-05-03T14:26:24.211Z,101613.38
2023-05-03T14:29:29.527Z,101610.25
2023-05-03T14:32:35.089Z,101612.47
2023-05-03T14:35:41.067Z,101612.31
2023-05-03T14:38:46.329Z,101612.34
2023-05-03T14:41:51.710Z,101616.50
2023-05-03T14:44:57.087Z,101619.13
2023-05-03T14:48:03.953Z,101616.91
2023-05-03T14:51:09.246Z,101619.00
2023-05-03T14:54:14.627Z,101623.50
2023-05-03T14:57:20.103Z,101621.38
2023-05-03T15:00:26.137Z,101621.25
2023-05-03T15:03:31.862Z,101624.41
2023-05-03T15:06:39.388Z,101632.31
2023-05-03T15:09:45.153Z,101631.63
2023-05-03T15:12:50.336Z,101636.81
2023-05-03T15:15:55.864Z,101635.75
2023-05-03T15:19:02.194Z,101642.25
2023-05-03T15:22:07.864Z,101642.28
2023-05-03T15:25:13.191Z,101642.03
2023-05-03T15:28:18.858Z,101636.38
2023-05-03T15:31:24.063Z,101649.13
2023-05-03T15:34:30.087Z,101650.75
2023-05-03T15:37:37.641Z,101658.59
2023-05-03T15:40:43.305Z,101652.91
2023-05-03T15:43:48.480Z,101662.13
2023-05-03T15:46:53.942Z,101658.34
2023-05-03T15:49:59.170Z,101655.94
2023-05-03T15:53:04.571Z,101658.63
2023-05-03T15:56:09.679Z,101646.16
2023-05-03T15:59:15.768Z,101642.91
2023-05-03T16:02:21.808Z,101643.44
2023-05-03T16:05:27.671Z,101640.69
2023-05-03T16:08:33.083Z,101638.56
2023-05-03T16:11:38.968Z,101634.81
2023-05-03T16:14:44.696Z,101639.94
2023-05-03T16:17:50.350Z,101637.75
2023-05-03T16:20:55.835Z,101638.06
2023-05-03T16:24:01.299Z,101637.25
2023-05-03T16:27:07.722Z,101634.25
2023-05-03T16:30:13.982Z,101632.34
2023-05-03T16:33:20.594Z,101635.06
2023-05-03T16:36:26.489Z,101626.91
2023-05-03T16:39:32.808Z,101631.78
2023-05-03T16:42:39.010Z,101625.28
2023-05-03T16:45:44.273Z,101622.06
2023-05-03T16:48:50.605Z,101630.75
2023-05-03T16:51:56.820Z,101620.44
2023-05-03T16:55:01.954Z,101622.63
2023-05-03T16:58:08.338Z,101629.13
2023-05-03T17:01:14.698Z,101623.16
2023-05-03T17:04:20.304Z,101629.66
2023-05-03T17:07:26.224Z,101630.19
2023-05-03T17:10:31.817Z,101626.69
2023-05-03T17:13:37.660Z,101622.06
2023-05-03T17:16:44.551Z,101623.97
2023-05-03T17:19:50.287Z,101626.94
2023-05-03T17:22:55.625Z,101626.13
2023-05-03T17:26:00.620Z,101623.94
2023-05-03T17:29:07.890Z,101632.88
2023-05-03T17:32:13.415Z,101630.41
2023-05-03T17:35:19.178Z,101622.56
2023-05-03T17:38:24.352Z,101632.28
2023-05-03T17:41:30.377Z,101639.56
2023-05-03T17:44:36.039Z,101640.94
2023-05-03T17:47:42.135Z,101644.66
2023-05-03T17:50:47.402Z,101651.44
2023-05-03T17:53:52.634Z,101650.53
2023-05-03T17:56:58.188Z,101654.84
2023-05-03T18:00:05.554Z,101658.00
2023-05-03T18:03:13.543Z,101666.06
2023-05-03T18:06:19.166Z,101662.78
2023-05-03T18:09:26.893Z,101667.63
2023-05-03T18:12:32.254Z,101667.41
2023-05-03T18:15:41.479Z,101667.59
2023-05-03T18:18:47.540Z,101677.53
2023-05-03T18:21:53.095Z,101676.97
2023-05-03T18:25:02.199Z,101675.31
2023-05-03T18:28:08.733Z,101679.34
2023-05-03T18:31:14.363Z,101686.88
2023-05-03T18:34:19.842Z,101687.91
2023-05-03T18:37:25.453Z,101684.66
2023-05-03T18:40:31.483Z,101691.41
2023-05-03T18:43:38.921Z,101698.66
2023-05-03T18:46:45.759Z,101701.38
2023-05-03T18:49:53.764Z,101704.88
2023-05-03T18:53:00.166Z,101700.84
2023-05-03T18:56:06.556Z,101707.78
2023-05-03T18:59:12.709Z,101714.00
2023-05-03T19:02:19.134Z,101709.63
2023-05-03T19:05:26.248Z,101718.97
2023-05-03T19:08:33.069Z,101722.59
2023-05-03T19:11:43.908Z,101733.06
2023-05-03T19:14:50.451Z,101727.13
2023-05-03T19:17:57.035Z,101733.16
2023-05-03T19:21:03.304Z,101731.44
2023-05-03T19:24:15.119Z,101741.84
2023-05-03T19:27:23.209Z,101741.31
2023-05-03T19:30:29.627Z,101735.91
2023-05-03T19:33:36.037Z,101741.84
2023-05-03T19:36:44.193Z,101750.41
2023-05-03T19:39:53.810Z,101755.84
2023-05-03T19:43:01.721Z,101763.69
2023-05-03T19:46:08.475Z,101769.91
2023-05-03T19:49:16.330Z,101766.28
2023-05-03T19:52:21.864Z,101771.34
2023-05-03T19:55:27.417Z,101772.88
2023-05-03T19:58:33.353Z,101783.41
2023-05-03T20:01:38.764Z,101785.25
2023-05-03T20:04:44.365Z,101785.50
2023-05-03T20:07:52.838Z,101788.75
2023-05-03T20:10:59.155Z,101790.06
2023-05-03T20:14:04.793Z,101788.38
2023-05-03T20:17:10.447Z,101789.19
2023-05-03T20:20:16.656Z,101793.44
2023-05-03T20:23:22.799Z,101797.75
2023-05-03T20:26:28.349Z,101793.16
2023-05-03T20:29:34.404Z,101792.88
2023-05-03T20:32:40.258Z,101802.03
2023-05-03T20:35:46.411Z,101797.16
2023-05-03T20:38:52.522Z,101794.81
2023-05-03T20:41:59.249Z,101795.31
2023-05-03T20:45:05.812Z,101797.69
2023-05-03T20:48:11.340Z,101793.63
2023-05-03T20:51:17.474Z,101799.59
2023-05-03T20:54:23.261Z,101797.94
2023-05-03T20:57:28.911Z,101795.81
2023-05-03T21:00:34.317Z,101792.25
2023-05-03T21:03:39.754Z,101793.38
2023-05-03T21:06:45.463Z,101804.59
2023-05-03T21:09:51.149Z,101797.81
2023-05-03T21:12:56.974Z,101796.81
2023-05-03T21:16:02.987Z,101797.94
2023-05-03T21:19:08.707Z,101800.25
2023-05-03T21:22:14.105Z,101796.31
2023-05-03T21:25:20.018Z,101795.66
2023-05-03T21:28:25.339Z,101798.75
2023-05-03T21:31:31.010Z,101799.19
2023-05-03T21:34:36.802Z,101808.56
2023-05-03T21:37:43.902Z,101805.59
2023-05-03T21:40:49.430Z,101801.81
2023-05-03T21:43:55.038Z,101799.69
2023-05-03T21:47:02.410Z,101788.94
2023-05-03T21:50:08.563Z,101790.41
2023-05-03T21:53:14.443Z,101791.41
2023-05-03T21:56:19.990Z,101789.75
2023-05-03T21:59:25.629Z,101793.03
2023-05-03T22:02:31.022Z,101794.81
2023-05-03T22:05:39.867Z,101794.25
2023-05-03T22:08:45.161Z,101796.28
2023-05-03T22:11:51.060Z,101794.81
2023-05-03T22:14:56.933Z,101804.09
2023-05-03T22:18:02.855Z,101804.34
2023-05-03T22:21:08.454Z,101799.72
2023-05-03T22:24:14.113Z,101809.56
2023-05-03T22:27:19.616Z,101802.38
2023-05-03T22:30:25.037Z,101805.41
2023-05-03T22:33:31.065Z,101798.91
2023-05-03T22:36:37.334Z,101801.25
2023-05-03T22:39:43.084Z,101805.72
2023-05-03T22:42:48.892Z,101808.69
2023-05-03T22:45:54.579Z,101805.56
2023-05-03T22:49:00.329Z,101804.09
2023-05-03T22:52:06.003Z,101809.78
2023-05-03T22:55:11.711Z,101804.19
2023-05-03T22:58:17.266Z,101809.56
2023-05-03T23:01:22.830Z,101808.97
2023-05-03T23:04:28.678Z,101801.91
2023-05-03T23:07:34.433Z,101803.91
2023-05-03T23:10:40.312Z,101801.47
2023-05-03T23:13:45.953Z,101800.56
2023-05-03T23:16:51.886Z,101805.56
2023-05-03T23:19:57.957Z,101803.50
2023-05-03T23:23:03.493Z,101804.53
2023-05-03T23:26:09.634Z,101803.72
2023-05-03T23:29:16.119Z,101800.34
2023-05-03T23:32:21.981Z,101803.78
2023-05-03T23:35:27.903Z,101809.81
2023-05-03T23:38:33.800Z,101813.69
2023-05-03T23:41:39.320Z,101807.25
2023-05-03T23:44:54.357Z,101814.03
2023-05-03T23:48:01.279Z,101809.94
2023-05-03T23:51:06.611Z,101804.22
2023-05-03T23:54:11.932Z,101793.69
2023-05-03T23:57:17.555Z,101798.97
